createdAt,value
2023-02-09T00:01:23.186Z,131.07
2023-02-09T00:03:51.235Z,130.03
2023-02-09T00:06:21.798Z,153.20
2023-02-09T00:08:49.528Z,149.50
2023-02-09T00:11:43.765Z,149.97
2023-02-09T00:14:11.970Z,164.33
2023-02-09T00:16:39.911Z,158.30
2023-02-09T00:19:07.293Z,154.60
2023-02-09T00:21:34.683Z,162.27
2023-02-09T00:24:02.549Z,166.00
2023-02-09T00:26:30.221Z,178.03
2023-02-09T00:28:58.501Z,177.30
2023-02-09T00:31:26.575Z,165.07
2023-02-09T00:33:54.131Z,164.63
2023-02-09T00:36:22.437Z,159.00
2023-02-09T00:38:49.811Z,151.20
2023-02-09T00:41:20.359Z,146.27
2023-02-09T00:43:48.030Z,152.23
2023-02-09T00:46:15.761Z,178.90
2023-02-09T00:48:43.455Z,164.57
2023-02-09T00:51:11.277Z,175.57
2023-02-09T00:53:38.479Z,167.13
2023-02-09T00:56:06.357Z,168.90
2023-02-09T00:58:33.807Z,171.63
2023-02-09T01:01:01.428Z,159.17
2023-02-09T01:03:28.769Z,156.13
2023-02-09T01:06:00.090Z,166.60
2023-02-09T01:08:27.411Z,166.03
2023-02-09T01:10:54.983Z,158.13
2023-02-09T01:13:22.478Z,182.23
2023-02-09T01:15:49.830Z,205.30
2023-02-09T01:18:17.725Z,201.90
2023-02-09T01:20:45.763Z,184.07
2023-02-09T01:23:13.237Z,183.40
2023-02-09T01:25:40.816Z,203.00
2023-02-09T01:28:08.416Z,180.50
2023-02-09T01:30:35.961Z,185.83
2023-02-09T01:33:03.341Z,162.60
2023-02-09T01:35:32.304Z,149.33
2023-02-09T01:38:00.445Z,153.67
2023-02-09T01:40:27.682Z,148.13
2023-02-09T01:42:55.052Z,146.33
2023-02-09T01:45:36.472Z,148.80
2023-02-09T01:48:04.425Z,151.23
2023-02-09T01:50:35.281Z,145.60
2023-02-09T01:53:04.310Z,140.03
2023-02-09T01:55:37.259Z,147.77
2023-02-09T01:58:11.054Z,164.53
2023-02-09T02:00:38.736Z,151.93
2023-02-09T02:03:10.194Z,153.70
2023-02-09T02:05:41.927Z,147.83
2023-02-09T02:08:22.395Z,144.87
2023-02-09T02:10:49.920Z,146.00
2023-02-09T02:13:17.501Z,142.50
2023-02-09T02:16:20.509Z,144.83
2023-02-09T02:19:35.500Z,136.43
2023-02-09T02:22:26.035Z,137.37
2023-02-09T02:25:21.472Z,136.93
2023-02-09T02:28:39.833Z,148.97
2023-02-09T02:31:35.044Z,137.40
2023-02-09T02:34:06.636Z,143.40
2023-02-09T02:36:45.509Z,145.87
2023-02-09T02:39:19.006Z,149.83
2023-02-09T02:42:18.130Z,138.57
2023-02-09T02:45:00.423Z,135.80
2023-02-09T02:47:31.119Z,134.70
2023-02-09T02:50:06.082Z,128.07
2023-02-09T02:52:33.788Z,120.00
2023-02-09T02:55:10.370Z,115.23
2023-02-09T02:57:41.102Z,117.87
2023-02-09T03:00:38.887Z,117.83
2023-02-09T03:03:12.745Z,115.27
2023-02-09T03:05:40.661Z,108.73
2023-02-09T03:08:08.204Z,112.47
2023-02-09T03:10:40.326Z,114.67
2023-02-09T03:13:22.500Z,112.93
2023-02-09T03:16:02.057Z,109.70
2023-02-09T03:19:07.799Z,107.47
2023-02-09T03:21:55.344Z,109.63
2023-02-09T03:24:31.830Z,107.43
2023-02-09T03:27:37.894Z,102.47
2023-02-09T03:30:08.566Z,108.27
2023-02-09T03:32:45.237Z,102.37
2023-02-09T03:35:17.822Z,108.50
2023-02-09T03:37:45.538Z,106.57
2023-02-09T03:40:13.576Z,111.47
2023-02-09T03:42:41.206Z,107.20
2023-02-09T03:45:08.997Z,106.10
2023-02-09T03:47:36.438Z,109.73
2023-02-09T03:50:04.876Z,103.77
2023-02-09T03:52:33.189Z,119.37
2023-02-09T03:55:00.546Z,112.07
2023-02-09T03:57:28.125Z,109.00
2023-02-09T03:59:55.354Z,101.60
2023-02-09T04:02:22.526Z,106.33
2023-02-09T04:04:50.880Z,105.13
2023-02-09T04:07:18.520Z,104.70
2023-02-09T04:09:45.860Z,97.10
2023-02-09T04:12:13.522Z,108.17
2023-02-09T04:14:41.367Z,98.17
2023-02-09T04:17:08.686Z,109.80
2023-02-09T04:19:36.529Z,105.90
2023-02-09T04:22:03.890Z,104.13
2023-02-09T04:24:31.707Z,107.93
2023-02-09T04:26:59.394Z,99.97
2023-02-09T04:29:28.681Z,111.07
2023-02-09T04:31:56.413Z,104.97
2023-02-09T04:34:25.053Z,103.30
2023-02-09T04:36:52.610Z,112.50
2023-02-09T04:39:20.205Z,100.50
2023-02-09T04:41:47.954Z,107.03
2023-02-09T04:44:15.146Z,100.23
2023-02-09T04:46:44.698Z,103.60
2023-02-09T04:49:13.206Z,103.43
2023-02-09T04:51:40.688Z,101.17
2023-02-09T04:54:07.936Z,113.17
2023-02-09T04:56:35.278Z,112.53
2023-02-09T04:59:21.573Z,99.10
2023-02-09T05:01:49.390Z,107.13
2023-02-09T05:04:16.859Z,105.57
2023-02-09T05:06:44.384Z,100.83
2023-02-09T05:09:11.910Z,96.17
2023-02-09T05:11:39.441Z,98.90
2023-02-09T05:14:06.993Z,98.47
2023-02-09T05:16:34.632Z,108.33
2023-02-09T05:19:01.982Z,102.00
2023-02-09T05:21:29.229Z,106.23
2023-02-09T05:23:56.813Z,112.97
2023-02-09T05:26:24.081Z,106.97
2023-02-09T05:28:51.491Z,107.50
2023-02-09T05:31:19.940Z,109.73
2023-02-09T05:33:47.208Z,107.33
2023-02-09T05:36:15.079Z,98.03
2023-02-09T05:38:42.391Z,93.70
2023-02-09T05:41:38.044Z,98.77
2023-02-09T05:44:05.703Z,97.27
2023-02-09T05:46:33.170Z,88.50
2023-02-09T05:49:00.906Z,96.70
2023-02-09T05:51:28.377Z,84.55
2023-02-09T05:53:57.748Z,86.10
2023-02-09T05:56:25.267Z,71.93
2023-02-09T05:58:52.697Z,83.27
2023-02-09T06:01:20.204Z,76.87
2023-02-09T06:03:49.057Z,79.63
2023-02-09T06:06:18.861Z,112.27
2023-02-09T06:08:46.009Z,105.40
2023-02-09T06:11:13.929Z,87.23
2023-02-09T06:13:41.045Z,77.67
2023-02-09T06:16:08.652Z,73.03
2023-02-09T06:18:36.663Z,65.20
2023-02-09T06:21:04.523Z,69.57
2023-02-09T06:23:33.945Z,61.93
2023-02-09T06:26:10.219Z,71.77
2023-02-09T06:28:37.839Z,72.70
2023-02-09T06:31:06.137Z,118.57
2023-02-09T06:33:35.454Z,570.03
2023-02-09T06:36:03.410Z,450.17
2023-02-09T06:38:35.583Z,160.27
2023-02-09T06:41:03.340Z,154.33
2023-02-09T06:43:30.643Z,98.80
2023-02-09T06:45:58.632Z,58.40
2023-02-09T06:48:25.945Z,51.03
2023-02-09T06:50:53.540Z,46.13
2023-02-09T06:53:20.932Z,49.20
2023-02-09T06:55:48.482Z,50.17
2023-02-09T06:58:15.988Z,68.00
2023-02-09T07:00:43.429Z,57.70
2023-02-09T07:03:11.840Z,63.23
2023-02-09T07:05:39.051Z,60.40
2023-02-09T07:08:06.397Z,55.73
2023-02-09T07:10:33.841Z,59.03
2023-02-09T07:13:01.761Z,54.87
2023-02-09T07:15:29.012Z,99.93
2023-02-09T07:17:56.649Z,308.37
2023-02-09T07:20:24.410Z,148.30
2023-02-09T07:22:52.130Z,132.67
2023-02-09T07:25:20.280Z,131.10
2023-02-09T07:27:48.050Z,147.00
2023-02-09T07:30:16.177Z,117.33
2023-02-09T07:32:43.605Z,122.80
2023-02-09T07:35:10.959Z,261.10
2023-02-09T07:37:38.182Z,80.90
2023-02-09T07:40:06.179Z,183.00
2023-02-09T07:42:33.862Z,112.47
2023-02-09T07:45:01.772Z,86.33
2023-02-09T07:47:29.284Z,107.43
2023-02-09T07:49:56.522Z,136.27
2023-02-09T07:52:23.752Z,108.03
2023-02-09T07:54:52.082Z,79.03
2023-02-09T07:57:19.473Z,56.83
2023-02-09T07:59:46.809Z,52.23
2023-02-09T08:02:23.255Z,64.13
2023-02-09T08:04:50.874Z,73.47
2023-02-09T08:07:18.610Z,78.60
2023-02-09T08:09:47.309Z,84.00
2023-02-09T08:12:17.733Z,41.77
2023-02-09T08:14:51.078Z,59.47
2023-02-09T08:17:21.320Z,41.07
2023-02-09T08:19:52.839Z,37.43
2023-02-09T08:22:22.743Z,49.57
2023-02-09T08:24:50.392Z,43.53
2023-02-09T08:27:18.199Z,34.27
2023-02-09T08:29:48.613Z,117.23
2023-02-09T08:32:16.315Z,79.07
2023-02-09T08:34:44.036Z,71.40
2023-02-09T08:37:11.503Z,64.17
2023-02-09T08:39:39.049Z,31.30
2023-02-09T08:42:06.439Z,32.80
2023-02-09T08:44:34.203Z,40.83
2023-02-09T08:47:01.784Z,32.40
2023-02-09T08:49:29.554Z,36.17
2023-02-09T08:51:57.276Z,38.63
2023-02-09T08:54:27.417Z,38.27
2023-02-09T08:56:54.813Z,46.07
2023-02-09T08:59:22.373Z,53.03
2023-02-09T09:01:50.059Z,39.43
2023-02-09T09:04:17.568Z,32.93
2023-02-09T09:06:45.926Z,29.87
2023-02-09T09:09:13.821Z,48.43
2023-02-09T09:11:41.654Z,25.77
2023-02-09T09:14:09.284Z,26.73
2023-02-09T09:16:37.149Z,31.03
2023-02-09T09:19:05.898Z,34.37
2023-02-09T09:21:34.195Z,31.37
2023-02-09T09:24:01.626Z,25.03
2023-02-09T09:26:29.382Z,33.23
2023-02-09T09:28:56.877Z,33.93
2023-02-09T09:31:24.368Z,26.20
2023-02-09T09:33:51.877Z,33.13
2023-02-09T09:36:21.051Z,24.37
2023-02-09T09:38:49.159Z,40.00
2023-02-09T09:41:38.342Z,16.60
2023-02-09T09:44:25.301Z,20.60
2023-02-09T09:46:55.008Z,24.03
2023-02-09T09:49:28.708Z,31.43
2023-02-09T09:52:09.898Z,13.93
2023-02-09T09:54:38.328Z,26.20
2023-02-09T09:57:27.781Z,17.13
2023-02-09T09:59:56.537Z,21.67
2023-02-09T10:02:32.507Z,15.50
2023-02-09T10:05:14.635Z,20.97
2023-02-09T10:07:46.158Z,23.07
2023-02-09T10:10:24.709Z,28.53
2023-02-09T10:12:53.678Z,31.67
2023-02-09T10:15:35.855Z,17.27
2023-02-09T10:18:06.895Z,23.73
2023-02-09T10:20:51.249Z,23.97
2023-02-09T10:23:43.347Z,13.97
2023-02-09T10:26:11.446Z,29.77
2023-02-09T10:28:42.220Z,19.40
2023-02-09T10:31:35.354Z,31.43
2023-02-09T10:34:08.752Z,16.60
2023-02-09T10:37:14.794Z,15.37
2023-02-09T10:39:42.683Z,19.13
2023-02-09T10:42:35.001Z,76.77
2023-02-09T10:45:23.051Z,51.50
2023-02-09T10:48:01.530Z,13.90
2023-02-09T10:50:29.677Z,16.03
2023-02-09T10:53:03.190Z,12.37
2023-02-09T10:55:41.839Z,12.80
2023-02-09T10:58:12.856Z,12.70
2023-02-09T11:00:49.342Z,17.80
2023-02-09T11:03:22.639Z,15.67
2023-02-09T11:06:03.251Z,14.00
2023-02-09T11:09:06.080Z,9.73
2023-02-09T11:11:39.116Z,20.43
2023-02-09T11:14:21.082Z,30.00
2023-02-09T11:16:58.891Z,12.23
2023-02-09T11:19:54.217Z,30.47
2023-02-09T11:22:44.634Z,43.93
2023-02-09T11:25:19.522Z,18.40
2023-02-09T11:28:35.605Z,16.70
2023-02-09T11:31:21.225Z,10.43
2023-02-09T11:34:46.736Z,31.27
2023-02-09T11:37:31.095Z,13.47
2023-02-09T11:40:02.854Z,17.80
2023-02-09T11:42:45.707Z,35.90
2023-02-09T11:45:31.443Z,35.27
2023-02-09T11:48:07.412Z,22.73
2023-02-09T11:51:00.842Z,36.10
2023-02-09T11:53:49.807Z,13.43
2023-02-09T11:56:21.872Z,18.10
2023-02-09T11:58:58.173Z,14.87
2023-02-09T12:01:52.555Z,9.67
2023-02-09T12:04:30.156Z,23.30
2023-02-09T12:07:14.305Z,22.43
2023-02-09T12:10:00.017Z,17.70
2023-02-09T12:12:50.829Z,35.47
2023-02-09T12:15:41.792Z,40.40
2023-02-09T12:18:16.382Z,26.00
2023-02-09T12:20:56.935Z,24.53
2023-02-09T12:23:37.563Z,15.43
2023-02-09T12:26:17.144Z,13.63
2023-02-09T12:28:46.386Z,16.30
2023-02-09T12:31:19.636Z,20.37
2023-02-09T12:33:47.320Z,12.77
2023-02-09T12:36:14.758Z,19.70
2023-02-09T12:38:55.483Z,14.63
2023-02-09T12:41:33.672Z,17.00
2023-02-09T12:44:11.050Z,24.53
2023-02-09T12:46:56.788Z,16.13
2023-02-09T12:49:30.146Z,14.03
2023-02-09T12:52:03.415Z,24.27
2023-02-09T12:54:51.397Z,14.87
2023-02-09T12:57:19.722Z,12.40
2023-02-09T12:59:53.496Z,10.17
2023-02-09T13:02:34.539Z,16.80
2023-02-09T13:05:06.214Z,10.83
2023-02-09T13:07:34.978Z,15.63
2023-02-09T13:10:25.429Z,20.47
2023-02-09T13:13:11.218Z,17.93
2023-02-09T13:16:03.758Z,20.27
2023-02-09T13:18:34.305Z,18.20
2023-02-09T13:21:21.134Z,26.33
2023-02-09T13:24:08.569Z,15.13
2023-02-09T13:26:39.456Z,16.50
2023-02-09T13:29:21.324Z,15.40
2023-02-09T13:32:16.522Z,12.33
2023-02-09T13:35:22.979Z,17.03
2023-02-09T13:37:58.292Z,12.70
2023-02-09T13:40:35.416Z,13.93
2023-02-09T13:43:11.834Z,16.87
2023-02-09T13:45:53.719Z,27.17
2023-02-09T13:48:33.739Z,20.90
2023-02-09T13:51:04.044Z,18.00
2023-02-09T13:53:32.621Z,15.67
2023-02-09T13:56:01.214Z,21.10
2023-02-09T13:58:37.318Z,15.03
2023-02-09T14:01:12.900Z,16.97
2023-02-09T14:03:57.839Z,21.90
2023-02-09T14:06:49.091Z,28.70
2023-02-09T14:09:24.667Z,24.27
2023-02-09T14:11:56.019Z,23.10
2023-02-09T14:14:28.947Z,35.47
2023-02-09T14:17:25.113Z,26.87
2023-02-09T14:19:55.134Z,35.13
2023-02-09T14:22:37.451Z,25.30
2023-02-09T14:25:14.071Z,26.83
2023-02-09T14:27:46.601Z,26.30
2023-02-09T14:30:26.085Z,26.17
2023-02-09T14:33:01.846Z,29.10
2023-02-09T14:35:34.250Z,26.83
2023-02-09T14:38:04.021Z,22.37
2023-02-09T14:40:35.417Z,19.07
2023-02-09T14:43:12.313Z,20.57
2023-02-09T14:45:46.726Z,38.23
2023-02-09T14:48:23.201Z,48.13
2023-02-09T14:50:57.640Z,22.90
2023-02-09T14:53:27.942Z,29.47
2023-02-09T14:55:56.529Z,24.70
2023-02-09T14:58:26.876Z,48.10
2023-02-09T15:00:59.870Z,58.63
2023-02-09T15:03:28.607Z,165.57
2023-02-09T15:06:00.103Z,144.43
2023-02-09T15:08:30.201Z,134.43
2023-02-09T15:11:24.890Z,100.10
2023-02-09T15:13:58.682Z,92.97
2023-02-09T15:16:26.089Z,121.90
2023-02-09T15:18:53.648Z,68.67
2023-02-09T15:21:21.356Z,67.30
2023-02-09T15:23:49.535Z,130.87
2023-02-09T15:26:27.123Z,76.83
2023-02-09T15:28:54.619Z,113.20
2023-02-09T15:31:22.530Z,127.07
2023-02-09T15:33:54.263Z,57.60
2023-02-09T15:36:23.342Z,68.23
2023-02-09T15:38:50.944Z,83.13
2023-02-09T15:41:37.002Z,89.37
2023-02-09T15:44:39.875Z,77.00
2023-02-09T15:47:32.039Z,80.70
2023-02-09T15:49:59.605Z,107.97
2023-02-09T15:52:32.281Z,61.10
2023-02-09T15:55:00.079Z,69.20
2023-02-09T15:57:27.640Z,86.57
2023-02-09T15:59:55.075Z,45.83
2023-02-09T16:02:22.948Z,99.67
2023-02-09T16:04:50.308Z,53.50
2023-02-09T16:07:24.883Z,76.90
2023-02-09T16:09:52.574Z,57.43
2023-02-09T16:12:20.279Z,47.20
2023-02-09T16:14:47.868Z,58.83
2023-02-09T16:17:15.610Z,80.67
2023-02-09T16:19:44.083Z,104.97
2023-02-09T16:22:13.596Z,355.60
2023-02-09T16:24:47.419Z,197.73
2023-02-09T16:27:22.798Z,163.73
2023-02-09T16:29:50.131Z,140.07
2023-02-09T16:32:19.395Z,111.53
2023-02-09T16:34:46.974Z,135.60
2023-02-09T16:37:28.563Z,74.60
2023-02-09T16:39:58.917Z,73.50
2023-02-09T16:42:26.477Z,73.10
2023-02-09T16:44:54.370Z,85.80
2023-02-09T16:47:26.816Z,73.80
2023-02-09T16:50:02.123Z,60.13
2023-02-09T16:52:30.560Z,104.17
2023-02-09T16:55:06.288Z,79.47
2023-02-09T16:57:33.841Z,347.63
2023-02-09T17:00:02.771Z,83.37
2023-02-09T17:02:44.182Z,54.37
2023-02-09T17:05:23.006Z,45.07
2023-02-09T17:08:00.883Z,48.97
2023-02-09T17:10:33.022Z,41.70
2023-02-09T17:13:05.829Z,47.67
2023-02-09T17:15:42.688Z,43.73
2023-02-09T17:18:41.969Z,34.20
2023-02-09T17:21:21.205Z,29.17
2023-02-09T17:23:49.383Z,27.77
2023-02-09T17:26:17.367Z,59.73
2023-02-09T17:28:45.036Z,37.87
2023-02-09T17:31:47.004Z,30.10
2023-02-09T17:34:17.250Z,46.17
2023-02-09T17:36:45.480Z,85.27
2023-02-09T17:39:14.407Z,94.17
2023-02-09T17:41:45.130Z,91.77
2023-02-09T17:44:29.143Z,69.57
2023-02-09T17:47:06.972Z,109.27
2023-02-09T17:49:35.504Z,102.13
2023-02-09T17:52:03.010Z,238.30
2023-02-09T17:54:30.501Z,301.10
2023-02-09T17:56:58.996Z,262.23
2023-02-09T17:59:26.262Z,281.57
2023-02-09T18:01:56.642Z,268.07
2023-02-09T18:04:29.935Z,132.83
2023-02-09T18:07:00.865Z,116.60
2023-02-09T18:09:30.103Z,187.40
2023-02-09T18:12:00.818Z,150.93
2023-02-09T18:14:32.599Z,148.43
2023-02-09T18:17:04.473Z,145.47
2023-02-09T18:19:36.539Z,225.10
2023-02-09T18:22:06.373Z,130.73
2023-02-09T18:24:36.359Z,174.10
2023-02-09T18:27:09.492Z,314.63
2023-02-09T18:29:42.412Z,313.30
2023-02-09T18:32:15.611Z,178.13
2023-02-09T18:34:47.096Z,186.93
2023-02-09T18:37:20.772Z,313.77
2023-02-09T18:42:37.945Z,153.70
2023-02-09T18:45:09.776Z,1011.80
2023-02-09T18:47:41.176Z,451.90
2023-02-09T18:50:14.834Z,107.43
2023-02-09T18:52:57.857Z,69.07
2023-02-09T18:55:36.653Z,53.77
2023-02-09T18:58:10.346Z,74.47
2023-02-09T19:00:39.019Z,75.37
2023-02-09T19:03:08.336Z,78.40
2023-02-09T19:05:37.170Z,48.67
2023-02-09T19:08:08.396Z,58.60
2023-02-09T19:10:39.858Z,134.37
2023-02-09T19:13:13.628Z,163.97
2023-02-09T19:15:43.520Z,169.90
2023-02-09T19:18:13.152Z,150.67
2023-02-09T19:20:48.087Z,145.10
2023-02-09T19:23:18.473Z,133.70
2023-02-09T19:25:47.753Z,135.83
2023-02-09T19:28:25.023Z,160.00
2023-02-09T19:30:53.565Z,234.10
2023-02-09T19:33:24.551Z,250.73
2023-02-09T19:36:07.229Z,220.77
2023-02-09T19:38:39.426Z,238.23
2023-02-09T19:41:13.514Z,241.97
2023-02-09T19:43:44.143Z,251.23
2023-02-09T19:46:14.002Z,225.23
2023-02-09T19:48:43.059Z,182.43
2023-02-09T19:51:16.891Z,190.77
2023-02-09T19:53:46.280Z,180.70
2023-02-09T19:56:18.557Z,187.03
2023-02-09T19:58:50.174Z,242.73
2023-02-09T20:01:22.706Z,303.27
2023-02-09T20:03:55.669Z,120.40
2023-02-09T20:06:26.689Z,85.87
2023-02-09T20:08:55.863Z,88.27
2023-02-09T20:11:24.348Z,98.93
2023-02-09T20:13:56.925Z,101.97
2023-02-09T20:16:36.911Z,115.90
2023-02-09T20:19:11.623Z,126.20
2023-02-09T20:21:41.932Z,164.13
2023-02-09T20:24:19.066Z,171.43
2023-02-09T20:26:47.886Z,147.87
2023-02-09T20:29:18.205Z,203.10
2023-02-09T20:31:47.207Z,176.20
2023-02-09T20:34:17.649Z,161.33
2023-02-09T20:36:49.923Z,120.13
2023-02-09T20:39:19.553Z,116.47
2023-02-09T20:42:08.208Z,112.83
2023-02-09T20:44:54.376Z,108.77
2023-02-09T20:47:23.076Z,120.43
2023-02-09T20:49:52.614Z,116.13
2023-02-09T20:52:22.736Z,120.97
2023-02-09T20:54:52.634Z,129.53
2023-02-09T20:57:25.197Z,149.33
2023-02-09T20:59:57.233Z,158.07
2023-02-09T21:02:26.054Z,165.70
2023-02-09T21:04:59.632Z,138.40
2023-02-09T21:07:28.145Z,136.57
2023-02-09T21:09:56.622Z,129.90
2023-02-09T21:12:26.553Z,122.67
2023-02-09T21:14:56.570Z,157.40
2023-02-09T21:17:25.303Z,197.07
2023-02-09T21:19:56.807Z,147.97
2023-02-09T21:22:26.891Z,161.60
2023-02-09T21:25:04.512Z,151.07
2023-02-09T21:27:34.223Z,150.50
2023-02-09T21:30:02.282Z,166.73
2023-02-09T21:35:15.272Z,210.43
2023-02-09T21:37:46.193Z,186.87
2023-02-09T21:40:17.296Z,218.33
2023-02-09T21:42:47.747Z,281.47
2023-02-09T21:45:16.189Z,355.33
2023-02-09T21:47:45.039Z,355.67
2023-02-09T21:50:22.010Z,425.87
2023-02-09T21:52:52.398Z,373.27
2023-02-09T21:55:20.026Z,396.23
2023-02-09T21:57:49.872Z,448.77
2023-02-09T22:00:20.766Z,451.93
2023-02-09T22:02:53.792Z,457.63
2023-02-09T22:05:23.557Z,477.90
2023-02-09T22:07:51.642Z,381.97
2023-02-09T22:10:19.640Z,375.33
2023-02-09T22:12:48.013Z,404.20
2023-02-09T22:15:19.205Z,403.30
2023-02-09T22:17:49.166Z,404.50
2023-02-09T22:20:19.009Z,396.07
2023-02-09T22:22:47.902Z,394.70
2023-02-09T22:25:20.291Z,365.90
2023-02-09T22:27:53.024Z,366.27
2023-02-09T22:30:22.677Z,363.97
2023-02-09T22:32:51.971Z,362.60
2023-02-09T22:35:22.500Z,375.50
2023-02-09T22:37:53.147Z,359.03
2023-02-09T22:40:22.060Z,368.37
2023-02-09T22:42:50.135Z,356.47
2023-02-09T22:45:18.908Z,271.40
2023-02-09T22:47:47.672Z,290.67
2023-02-09T22:50:16.522Z,323.10
2023-02-09T22:52:45.081Z,331.13
2023-02-09T22:55:12.875Z,242.60
2023-02-09T22:57:41.699Z,219.90
2023-02-09T23:00:14.784Z,132.43
2023-02-09T23:02:42.338Z,168.97
2023-02-09T23:05:12.166Z,164.83
2023-02-09T23:07:40.805Z,147.53
2023-02-09T23:10:08.784Z,150.87
2023-02-09T23:12:40.785Z,137.17
2023-02-09T23:15:11.834Z,110.43
2023-02-09T23:17:40.615Z,131.97
2023-02-09T23:20:09.204Z,89.30
2023-02-09T23:22:42.940Z,91.60
2023-02-09T23:25:12.152Z,68.10
2023-02-09T23:27:40.036Z,70.33
2023-02-09T23:30:10.522Z,58.53
2023-02-09T23:32:39.595Z,48.43
2023-02-09T23:35:08.161Z,46.93
2023-02-09T23:37:38.061Z,37.77
2023-02-09T23:40:06.510Z,40.60
2023-02-09T23:42:33.791Z,52.40
2023-02-09T23:45:01.144Z,56.33
2023-02-09T23:47:30.630Z,67.63
2023-02-09T23:49:58.310Z,47.67
2023-02-09T23:52:25.795Z,47.17
2023-02-09T23:54:52.982Z,50.57
2023-02-09T23:57:23.850Z,46.70
2023-02-09T23:59:51.864Z,48.10
